Time;durP1;ratioP1;P1;durP2;ratioP2;P2;SDS_P1;SDS_P2;PMS_P1;PMS_P2;Temp;Humidity;BMP_temperature;BMP_pressure;BME280_temperature;BME280_humidity;BME280_pressure;Samples;Min_cycle;Max_cycle;Signal;HPM_P1;HPM_P2
2021/08/26 00:00:57;;;;;;;12.68;9.52;;;435.90;2355.20;;;;;;5092800;28;20427;-80
2021/08/26 00:06:14;;;;;;;12.23;8.98;;;460.80;2380.80;;;;;;5093936;28;20058;-80
2021/08/26 00:08:40;;;;;;;12.80;8.50;;;460.80;2380.80;;;;;;5093899;28;20016;-81
2021/08/26 00:11:05;;;;;;;12.52;9.20;;;460.80;2380.80;;;;;;5093986;28;20034;-81
2021/08/26 00:13:31;;;;;;;12.35;8.82;;;460.80;2380.80;;;;;;5093790;28;20045;-81
2021/08/26 00:15:59;;;;;;;12.70;9.23;;;460.80;2380.80;;;;;;5093615;28;20058;-81
2021/08/26 00:18:25;;;;;;;11.38;9.27;;;460.90;2380.80;;;;;;5093414;28;20457;-79
2021/08/26 00:20:54;;;;;;;14.30;8.48;;;460.90;2380.80;;;;;;5089588;28;20480;-76
2021/08/26 00:23:21;;;;;;;12.10;9.07;;;460.90;2380.80;;;;;;5093109;28;20031;-80
2021/08/26 00:25:47;;;;;;;13.63;8.95;;;460.90;2380.80;;;;;;5093173;28;20019;-76
2021/08/26 00:28:13;;;;;;;11.68;8.55;;;461.00;2380.80;;;;;;5093612;28;20654;-79
2021/08/26 00:30:39;;;;;;;10.82;8.50;;;460.90;2380.80;;;;;;5092679;28;20106;-79
2021/08/26 00:33:04;;;;;;;12.80;8.32;;;461.00;2380.80;;;;;;5075049;28;20027;-76
2021/08/26 00:35:31;;;;;;;11.90;8.95;;;461.00;2380.80;;;;;;5093090;28;20036;-80
2021/08/26 00:37:57;;;;;;;12.95;8.60;;;460.90;2380.80;;;;;;5093969;28;20027;-84
2021/08/26 00:40:22;;;;;;;12.15;8.70;;;461.00;2380.80;;;;;;5093908;28;20487;-78
2021/08/26 00:42:49;;;;;;;15.75;9.35;;;460.90;2380.80;;;;;;5094094;28;20495;-82
2021/08/26 00:45:15;;;;;;;14.95;9.32;;;460.90;2380.80;;;;;;5093832;28;20024;-80
2021/08/26 00:47:46;;;;;;;11.10;9.13;;;461.00;2380.80;;;;;;5094435;28;20107;-82
2021/08/26 00:50:14;;;;;;;14.68;9.10;;;461.00;2380.80;;;;;;5093716;28;20024;-82
2021/08/26 00:52:40;;;;;;;10.63;9.05;;;461.00;2380.80;;;;;;5076230;28;20013;-75
2021/08/26 00:55:08;;;;;;;10.60;9.02;;;461.00;2380.80;;;;;;5093397;28;20062;-76
2021/08/26 00:57:35;;;;;;;10.95;7.93;;;461.00;2380.80;;;;;;5092996;28;20461;-82
2021/08/26 01:00:04;;;;;;;14.18;9.10;;;460.80;2380.80;;;;;;5092233;28;20024;-78
2021/08/26 01:02:39;;;;;;;13.75;8.07;;;461.00;2380.80;;;;;;5076287;28;20038;-82
2021/08/26 01:05:08;;;;;;;11.85;8.88;;;461.10;2380.80;;;;;;5091088;28;20078;-80
2021/08/26 01:07:47;;;;;;;11.65;8.45;;;461.10;2380.80;;;;;;5092613;28;20016;-76
2021/08/26 01:10:16;;;;;;;15.63;8.27;;;461.10;2380.80;;;;;;5092731;28;20024;-77
2021/08/26 01:12:45;;;;;;;12.05;8.93;;;461.10;2380.80;;;;;;5074176;28;20038;-81
2021/08/26 01:15:11;;;;;;;15.77;9.13;;;461.10;2380.80;;;;;;5092681;28;20020;-76
2021/08/26 01:17:42;;;;;;;11.73;8.55;;;461.10;2380.80;;;;;;5092652;28;20491;-80
2021/08/26 01:20:08;;;;;;;13.50;8.48;;;461.10;2380.80;;;;;;5090632;28;20020;-82
2021/08/26 01:22:35;;;;;;;9.90;7.97;;;461.10;2380.80;;;;;;5092470;28;20041;-82
2021/08/26 01:25:06;;;;;;;13.70;8.80;;;461.10;2380.80;;;;;;5092798;28;20106;-81
2021/08/26 01:27:50;;;;;;;12.13;8.93;;;461.10;2380.80;;;;;;5092488;28;20433;-76
2021/08/26 01:30:22;;;;;;;10.55;7.65;;;461.00;2380.80;;;;;;5073835;28;20028;-76
2021/08/26 01:32:49;;;;;;;15.15;8.52;;;461.10;2380.80;;;;;;5073040;28;20020;-82
2021/08/26 01:35:15;;;;;;;12.70;8.30;;;461.10;2380.80;;;;;;5092642;28;20031;-77
2021/08/26 01:37:42;;;;;;;11.98;8.32;;;461.10;2380.80;;;;;;5092147;28;20028;-81
2021/08/26 01:40:09;;;;;;;13.65;8.90;;;461.00;2380.80;;;;;;5092120;28;20024;-80
2021/08/26 01:42:35;;;;;;;20.67;9.18;;;461.00;2380.80;;;;;;5092248;28;20012;-81
2021/08/26 01:45:03;;;;;;;10.20;7.85;;;461.00;2380.80;;;;;;5073978;28;20038;-76
2021/08/26 01:47:29;;;;;;;10.00;8.05;;;461.00;2380.80;;;;;;5089787;28;20103;-80
2021/08/26 01:49:55;;;;;;;9.98;7.70;;;461.10;2380.80;;;;;;5091755;28;20035;-76
2021/08/26 01:52:23;;;;;;;12.50;8.45;;;461.00;2380.80;;;;;;5092428;28;20020;-80
2021/08/26 01:54:55;;;;;;;9.88;7.60;;;461.10;2380.80;;;;;;5092024;28;20039;-76
2021/08/26 01:57:21;;;;;;;12.40;7.95;;;461.00;2380.80;;;;;;5091487;28;20016;-79
2021/08/26 01:59:48;;;;;;;11.15;7.88;;;461.10;2380.80;;;;;;5092012;28;20101;-76
2021/08/26 02:02:14;;;;;;;11.77;8.90;;;461.10;2380.80;;;;;;5091804;28;20028;-80
2021/08/26 02:04:40;;;;;;;9.77;7.90;;;461.10;2380.80;;;;;;5073689;28;20024;-76
2021/08/26 02:07:06;;;;;;;10.23;8.77;;;461.10;2380.80;;;;;;5092697;28;20031;-77
2021/08/26 02:09:32;;;;;;;14.57;8.90;;;461.00;2380.80;;;;;;5092656;28;20378;-79
2021/08/26 02:11:58;;;;;;;11.32;8.25;;;461.10;2380.80;;;;;;5092164;28;20032;-80
2021/08/26 02:14:23;;;;;;;13.13;8.07;;;461.10;2380.80;;;;;;5092468;28;20020;-78
2021/08/26 02:16:49;;;;;;;12.80;7.93;;;461.10;2380.80;;;;;;5091688;28;20036;-76
2021/08/26 02:19:15;;;;;;;12.18;8.02;;;461.10;2380.80;;;;;;5073325;28;20024;-81
2021/08/26 02:21:42;;;;;;;10.07;7.93;;;461.10;2380.80;;;;;;5092500;28;20047;-82
2021/08/26 02:24:08;;;;;;;10.32;8.35;;;461.10;2380.80;;;;;;5091979;28;20044;-77
2021/08/26 02:26:34;;;;;;;13.68;9.18;;;461.20;2380.80;;;;;;5092129;28;21462;-81
2021/08/26 02:29:00;;;;;;;11.40;8.52;;;461.00;2380.80;;;;;;5091706;28;20085;-83
2021/08/26 02:31:27;;;;;;;14.35;8.07;;;461.00;2380.80;;;;;;5092014;28;20088;-80
2021/08/26 02:33:54;;;;;;;12.50;8.10;;;461.00;2380.80;;;;;;5091955;28;20033;-82
2021/08/26 02:36:20;;;;;;;9.80;8.05;;;461.10;2380.80;;;;;;5091315;28;20058;-76
2021/08/26 02:38:45;;;;;;;13.02;7.55;;;461.10;2380.80;;;;;;5090113;28;20058;-82
2021/08/26 02:41:11;;;;;;;13.80;8.98;;;461.10;2380.80;;;;;;5091680;28;20020;-76
2021/08/26 02:43:38;;;;;;;10.35;8.30;;;461.10;2380.80;;;;;;5091719;28;20504;-79
2021/08/26 02:46:04;;;;;;;11.65;8.48;;;461.10;2380.80;;;;;;5073820;28;20032;-83
2021/08/26 02:48:29;;;;;;;11.25;8.30;;;461.10;2380.80;;;;;;5092172;28;20023;-80
2021/08/26 02:50:55;;;;;;;9.82;7.93;;;461.10;2380.80;;;;;;5073168;28;20032;-82
2021/08/26 02:53:21;;;;;;;15.00;9.38;;;461.10;2380.80;;;;;;5073456;28;20490;-79
2021/08/26 02:55:47;;;;;;;11.68;8.98;;;461.10;2380.80;;;;;;5091439;28;20063;-75
2021/08/26 02:58:13;;;;;;;14.52;8.73;;;461.10;2380.80;;;;;;5091822;28;20020;-79
2021/08/26 03:00:38;;;;;;;9.98;7.80;;;461.10;2380.80;;;;;;5076964;28;20032;-82
2021/08/26 03:03:04;;;;;;;12.52;8.00;;;461.10;2380.80;;;;;;5094925;28;20020;-81
2021/08/26 03:05:30;;;;;;;12.32;8.70;;;461.10;2380.80;;;;;;5077904;28;20032;-80
2021/08/26 03:07:56;;;;;;;10.57;7.95;;;461.10;2380.80;;;;;;5095892;28;20045;-80
2021/08/26 03:10:25;;;;;;;11.43;8.13;;;461.10;2380.80;;;;;;5077092;28;20036;-78
2021/08/26 03:12:51;;;;;;;11.27;8.65;;;461.00;2380.80;;;;;;5095787;28;20046;-76
2021/08/26 03:15:17;;;;;;;11.60;8.20;;;460.90;2380.80;;;;;;5077546;28;20073;-79
2021/08/26 03:17:43;;;;;;;10.15;8.30;;;460.90;2380.80;;;;;;5095210;28;20020;-79
2021/08/26 03:20:10;;;;;;;10.05;7.97;;;460.90;2380.80;;;;;;5095461;28;20093;-75
2021/08/26 03:22:36;;;;;;;10.88;8.55;;;460.90;2380.80;;;;;;5105388;28;20046;-75
2021/08/26 03:25:02;;;;;;;10.93;8.40;;;460.90;2380.80;;;;;;5095632;28;20020;-80
2021/08/26 03:27:28;;;;;;;12.90;8.75;;;460.80;2380.80;;;;;;5095678;28;20023;-76
2021/08/26 03:29:54;;;;;;;12.52;8.05;;;460.80;2380.80;;;;;;5095526;28;20032;-76
2021/08/26 03:32:20;;;;;;;15.43;8.20;;;460.80;2380.80;;;;;;5094999;28;20020;-76
2021/08/26 03:34:45;;;;;;;14.18;9.02;;;460.80;2380.80;;;;;;5095129;28;20032;-76
2021/08/26 03:37:11;;;;;;;13.23;8.85;;;460.80;2380.80;;;;;;5099137;28;20016;-76
2021/08/26 03:39:37;;;;;;;10.80;8.00;;;460.80;2380.80;;;;;;5106268;28;20020;-76
2021/08/26 03:42:04;;;;;;;12.73;8.73;;;460.80;2380.80;;;;;;5093376;28;20496;-75
2021/08/26 03:44:29;;;;;;;10.15;8.75;;;436.10;2355.20;;;;;;5094780;28;20024;-78
2021/08/26 03:46:55;;;;;;;12.02;9.25;;;436.00;2355.20;;;;;;5094855;28;20028;-77
2021/08/26 03:49:21;;;;;;;11.38;8.63;;;436.10;2355.20;;;;;;5094708;28;20036;-80
2021/08/26 03:51:47;;;;;;;12.20;8.43;;;436.10;2355.20;;;;;;5094646;28;20393;-76
2021/08/26 03:54:13;;;;;;;13.30;8.73;;;436.10;2355.20;;;;;;5094713;28;20020;-78
2021/08/26 03:56:39;;;;;;;14.55;8.35;;;436.10;2355.20;;;;;;5094724;28;20032;-75
2021/08/26 03:59:05;;;;;;;11.48;8.68;;;436.10;2355.20;;;;;;5094442;28;20429;-76
2021/08/26 04:01:32;;;;;;;11.30;8.43;;;436.10;2355.20;;;;;;5094691;28;20036;-76
2021/08/26 04:03:58;;;;;;;14.77;8.57;;;436.10;2355.20;;;;;;5094119;28;20032;-76
2021/08/26 04:06:24;;;;;;;14.52;8.88;;;436.10;2355.20;;;;;;5094567;28;20039;-77
2021/08/26 04:08:50;;;;;;;12.50;8.52;;;436.00;2355.20;;;;;;5094496;28;20016;-80
2021/08/26 04:11:15;;;;;;;14.40;8.52;;;436.00;2355.20;;;;;;5094167;28;20027;-75
2021/08/26 04:13:41;;;;;;;13.80;8.98;;;436.10;2355.20;;;;;;5094450;28;20020;-77
2021/08/26 04:16:07;;;;;;;22.20;9.65;;;436.10;2355.20;;;;;;5094371;28;20473;-80
2021/08/26 04:18:33;;;;;;;12.60;9.15;;;436.00;2355.20;;;;;;5094118;28;20020;-82
2021/08/26 04:20:58;;;;;;;14.65;9.57;;;436.00;2355.20;;;;;;5094673;28;20025;-82
2021/08/26 04:23:24;;;;;;;10.75;8.48;;;436.10;2355.20;;;;;;5094518;28;20028;-81
2021/08/26 04:25:50;;;;;;;11.93;9.25;;;436.10;2355.20;;;;;;5094601;28;20027;-78
2021/08/26 04:28:16;;;;;;;13.55;8.77;;;436.10;2355.20;;;;;;5101041;28;20031;-81
2021/08/26 04:30:41;;;;;;;12.50;9.30;;;436.10;2355.20;;;;;;5111581;28;20483;-81
2021/08/26 04:33:07;;;;;;;15.43;10.13;;;436.10;2355.20;;;;;;5094604;28;20020;-78
2021/08/26 04:35:33;;;;;;;15.32;8.77;;;436.10;2355.20;;;;;;5094292;28;20024;-81
2021/08/26 04:37:59;;;;;;;13.75;8.45;;;436.10;2355.20;;;;;;5094375;28;20024;-81
2021/08/26 04:40:25;;;;;;;10.75;9.00;;;436.10;2355.20;;;;;;5094394;28;20028;-76
2021/08/26 04:42:50;;;;;;;12.40;9.15;;;460.80;2380.80;;;;;;5091481;28;20020;-78
2021/08/26 04:45:16;;;;;;;15.00;9.55;;;460.80;2380.80;;;;;;5094253;28;20020;-81
2021/08/26 04:47:42;;;;;;;10.70;8.52;;;460.80;2380.80;;;;;;5094125;28;20031;-80
2021/08/26 04:50:08;;;;;;;15.82;9.32;;;460.80;2380.80;;;;;;5094137;28;20035;-80
2021/08/26 04:52:34;;;;;;;13.05;9.13;;;460.90;2380.80;;;;;;5094151;28;20016;-82
2021/08/26 04:54:59;;;;;;;15.40;8.13;;;461.00;2380.80;;;;;;5093818;28;20120;-79
2021/08/26 04:57:25;;;;;;;13.38;8.85;;;460.90;2380.80;;;;;;5094136;28;20023;-82
2021/08/26 04:59:51;;;;;;;13.32;9.98;;;460.90;2380.80;;;;;;5093845;28;20016;-81
2021/08/26 05:02:17;;;;;;;13.80;9.70;;;460.90;2380.80;;;;;;5093464;28;20062;-80
2021/08/26 05:04:42;;;;;;;17.15;9.85;;;461.00;2380.80;;;;;;5093842;28;20126;-81
2021/08/26 05:07:08;;;;;;;10.75;9.00;;;461.10;2380.80;;;;;;5093545;28;20047;-81
2021/08/26 05:09:34;;;;;;;11.02;9.00;;;461.10;2380.80;;;;;;5093737;28;20042;-81
2021/08/26 05:12:00;;;;;;;12.82;9.43;;;461.00;2380.80;;;;;;5093693;28;20039;-81
2021/08/26 05:14:27;;;;;;;13.20;10.15;;;461.00;2380.80;;;;;;5093626;28;21481;-80
2021/08/26 05:16:53;;;;;;;12.52;8.90;;;461.10;2380.80;;;;;;5075833;28;20028;-81
2021/08/26 05:19:19;;;;;;;13.50;9.23;;;461.10;2380.80;;;;;;5093488;28;20065;-81
2021/08/26 05:21:45;;;;;;;16.17;9.40;;;461.10;2380.80;;;;;;5093412;28;20017;-78
2021/08/26 05:24:11;;;;;;;16.30;9.18;;;461.10;2380.80;;;;;;5096898;28;20124;-81
2021/08/26 05:26:37;;;;;;;17.20;9.82;;;461.20;2380.80;;;;;;5104146;28;20535;-81
2021/08/26 05:29:02;;;;;;;16.45;9.93;;;461.10;2380.80;;;;;;5094153;28;20028;-82
2021/08/26 05:31:28;;;;;;;13.43;9.15;;;461.20;2380.80;;;;;;5093653;28;20035;-81
2021/08/26 05:33:54;;;;;;;18.63;9.95;;;461.20;2380.80;;;;;;5093100;28;20032;-79
2021/08/26 05:36:19;;;;;;;12.82;10.10;;;461.20;2380.80;;;;;;5093016;28;20026;-80
2021/08/26 05:38:45;;;;;;;12.50;9.07;;;461.30;2380.80;;;;;;5101550;28;20468;-78
2021/08/26 05:41:11;;;;;;;10.43;8.75;;;461.20;2380.80;;;;;;5083565;28;20024;-79
2021/08/26 05:43:36;;;;;;;16.05;9.88;;;461.30;2380.80;;;;;;5094323;28;20119;-78
2021/08/26 05:46:05;;;;;;;15.15;9.50;;;461.30;2380.80;;;;;;5093142;28;20028;-79
2021/08/26 05:48:39;;;;;;;21.83;9.85;;;461.30;2380.80;;;;;;5092739;28;20043;-76
2021/08/26 05:51:05;;;;;;;13.50;9.27;;;461.20;2380.80;;;;;;5092487;28;20040;-76
2021/08/26 05:53:30;;;;;;;10.55;8.50;;;461.40;2380.80;;;;;;5092738;28;20385;-78
2021/08/26 05:55:56;;;;;;;13.80;9.38;;;461.40;2380.80;;;;;;5091365;28;20492;-76
2021/08/26 05:58:22;;;;;;;15.75;8.70;;;461.50;2380.80;;;;;;5091621;28;20020;-79
2021/08/26 06:00:49;;;;;;;12.35;9.07;;;461.60;2380.80;;;;;;5091495;28;20027;-79
2021/08/26 06:03:15;;;;;;;15.30;9.38;;;461.60;2380.80;;;;;;5070734;28;20038;-77
2021/08/26 06:05:42;;;;;;;12.60;9.48;;;461.70;2380.80;;;;;;5091563;28;20024;-77
2021/08/26 06:08:08;;;;;;;12.05;9.02;;;461.70;2380.80;;;;;;5106939;28;20017;-80
2021/08/26 06:10:33;;;;;;;12.93;9.20;;;486.40;2380.80;;;;;;5104823;28;20431;-80
2021/08/26 06:12:59;;;;;;;12.65;9.05;;;486.40;2380.80;;;;;;5092657;28;20059;-76
2021/08/26 06:15:25;;;;;;;11.80;8.55;;;486.40;2380.80;;;;;;5092585;28;20106;-76
2021/08/26 06:17:51;;;;;;;12.40;9.35;;;486.40;2380.80;;;;;;5092562;28;20024;-78
2021/08/26 06:20:16;;;;;;;14.13;9.30;;;486.40;2380.80;;;;;;5084718;28;20072;-76
2021/08/26 06:22:44;;;;;;;13.00;9.30;;;486.50;2380.80;;;;;;5112644;28;20414;-78
2021/08/26 06:25:10;;;;;;;14.65;10.38;;;486.40;2380.80;;;;;;5112148;28;20015;-77
2021/08/26 06:27:37;;;;;;;13.18;9.32;;;486.40;2380.80;;;;;;5112691;28;20361;-78
2021/08/26 06:30:05;;;;;;;14.50;9.95;;;486.50;2380.80;;;;;;5112156;28;20038;-77
2021/08/26 06:32:30;;;;;;;15.15;9.32;;;486.50;2380.80;;;;;;5103782;28;20065;-79
2021/08/26 06:34:58;;;;;;;14.65;8.98;;;486.70;2380.80;;;;;;5108487;28;20430;-77
2021/08/26 06:37:24;;;;;;;15.45;9.38;;;486.70;2380.80;;;;;;5103447;28;20008;-75
2021/08/26 06:39:50;;;;;;;13.15;9.35;;;486.70;2380.80;;;;;;5116551;28;20019;-79
2021/08/26 06:42:16;;;;;;;14.77;9.75;;;486.70;2380.80;;;;;;5115886;28;20023;-75
2021/08/26 06:44:41;;;;;;;13.90;9.40;;;486.60;2380.80;;;;;;5116325;28;20038;-78
2021/08/26 06:47:07;;;;;;;13.02;9.20;;;486.70;2380.80;;;;;;5115885;28;20031;-77
2021/08/26 06:49:33;;;;;;;16.48;9.23;;;486.80;2380.80;;;;;;5116164;28;20065;-77
2021/08/26 06:51:59;;;;;;;10.48;8.82;;;486.80;2380.80;;;;;;5115617;28;20069;-77
2021/08/26 06:54:25;;;;;;;14.00;9.50;;;486.80;2380.80;;;;;;5116168;28;20457;-79
2021/08/26 06:56:50;;;;;;;17.85;10.73;;;486.80;2380.80;;;;;;5107095;28;20035;-80
2021/08/26 06:59:16;;;;;;;15.18;8.27;;;486.80;2380.80;;;;;;5111758;28;20094;-79
2021/08/26 07:01:42;;;;;;;15.23;9.30;;;487.00;2380.80;;;;;;5116617;28;20369;-78
2021/08/26 07:04:08;;;;;;;13.68;10.63;;;487.00;2380.80;;;;;;5116296;28;20024;-79
2021/08/26 07:06:34;;;;;;;12.93;9.10;;;487.00;2380.80;;;;;;5116472;28;20046;-76
2021/08/26 07:09:00;;;;;;;13.60;9.93;;;487.10;2380.80;;;;;;5104983;28;20027;-77
2021/08/26 07:11:26;;;;;;;14.05;9.48;;;487.10;2380.80;;;;;;5113754;28;20027;-78
2021/08/26 07:13:52;;;;;;;14.05;9.68;;;487.30;2380.80;;;;;;5116535;28;20023;-77
2021/08/26 07:16:18;;;;;;;10.65;8.70;;;487.30;2380.80;;;;;;5116338;28;20035;-79
2021/08/26 07:18:44;;;;;;;16.08;9.20;;;512.10;2380.80;;;;;;5116235;28;20089;-76
2021/08/26 07:21:09;;;;;;;15.88;9.80;;;512.20;2380.80;;;;;;5116020;28;20035;-76
2021/08/26 07:23:35;;;;;;;13.68;9.48;;;512.40;2380.80;;;;;;5116160;28;20026;-76
2021/08/26 07:26:02;;;;;;;17.60;10.50;;;512.50;2380.80;;;;;;5116409;28;20028;-77
2021/08/26 07:28:28;;;;;;;13.90;9.57;;;512.70;2380.80;;;;;;5116121;28;20020;-80
2021/08/26 07:30:53;;;;;;;14.82;10.10;;;512.60;2380.80;;;;;;5116159;28;20107;-80
2021/08/26 07:33:19;;;;;;;13.55;9.88;;;512.60;2380.80;;;;;;5100107;28;20028;-80
2021/08/26 07:35:45;;;;;;;16.13;9.30;;;512.70;2380.80;;;;;;5095579;28;20028;-81
2021/08/26 07:38:10;;;;;;;15.18;10.02;;;512.60;2380.80;;;;;;5095462;28;20024;-81
2021/08/26 07:40:36;;;;;;;17.02;10.63;;;512.60;2380.80;;;;;;5095615;28;20020;-80
2021/08/26 07:43:02;;;;;;;13.13;8.88;;;512.90;2380.80;;;;;;5095444;28;20103;-77
2021/08/26 07:45:28;;;;;;;13.50;9.65;;;512.90;2380.80;;;;;;5094891;28;20484;-80
2021/08/26 07:47:53;;;;;;;15.82;9.50;;;537.60;2406.40;;;;;;5095645;28;20020;-79
2021/08/26 07:50:21;;;;;;;14.95;9.00;;;537.60;2406.40;;;;;;5095114;28;20435;-79
2021/08/26 07:52:47;;;;;;;14.27;9.23;;;537.60;2406.40;;;;;;5094927;28;20043;-80
2021/08/26 07:55:13;;;;;;;11.52;7.60;;;537.70;2355.20;;;;;;5092589;28;20441;-77
2021/08/26 07:57:39;;;;;;;14.18;8.07;;;537.80;2304.00;;;;;;5099071;28;20103;-80
2021/08/26 08:00:05;;;;;;;12.95;8.43;;;537.70;2329.60;;;;;;5114971;28;20456;-76
2021/08/26 08:02:31;;;;;;;14.20;8.10;;;537.80;2329.60;;;;;;5093990;28;20115;-77
2021/08/26 08:04:57;;;;;;;13.35;8.20;;;537.90;2304.00;;;;;;5109480;28;20444;-79
2021/08/26 08:07:23;;;;;;;13.05;8.82;;;537.80;2329.60;;;;;;5094143;28;20030;-75
2021/08/26 08:09:48;;;;;;;14.60;8.73;;;537.80;2304.00;;;;;;5109026;28;20422;-79
2021/08/26 08:12:14;;;;;;;13.05;8.65;;;537.90;2304.00;;;;;;5112299;28;20032;-81
2021/08/26 08:14:42;;;;;;;10.55;7.43;;;538.00;2329.60;;;;;;5110090;28;20077;-78
2021/08/26 08:17:09;;;;;;;14.10;8.77;;;538.00;2252.80;;;;;;5111791;28;20103;-81
2021/08/26 08:19:35;;;;;;;17.33;9.13;;;538.00;2227.20;;;;;;5100146;28;20016;-76
2021/08/26 08:22:01;;;;;;;16.27;8.20;;;538.10;2227.20;;;;;;5098275;28;20027;-76
2021/08/26 08:24:27;;;;;;;14.13;8.52;;;538.20;2252.80;;;;;;5102068;28;20389;-80
2021/08/26 08:26:53;;;;;;;14.77;8.52;;;538.20;2278.40;;;;;;5107687;28;20102;-79
2021/08/26 08:29:19;;;;;;;10.15;8.38;;;538.20;2278.40;;;;;;5111924;28;20050;-76
2021/08/26 08:31:45;;;;;;;16.02;9.18;;;538.20;2252.80;;;;;;5109088;28;20531;-81
2021/08/26 08:34:11;;;;;;;20.38;9.18;;;538.30;2278.40;;;;;;5093209;28;20035;-84
2021/08/26 08:36:37;;;;;;;14.93;9.07;;;538.30;2252.80;;;;;;5111246;28;20492;-82
2021/08/26 08:39:04;;;;;;;11.35;7.72;;;538.30;2252.80;;;;;;5109993;28;20542;-78
2021/08/26 08:41:32;;;;;;;14.48;8.80;;;538.40;2227.20;;;;;;5112072;28;20030;-80
2021/08/26 08:43:59;;;;;;;11.95;8.23;;;538.30;2227.20;;;;;;5109097;28;20020;-78
2021/08/26 08:46:27;;;;;;;14.35;9.40;;;538.50;2252.80;;;;;;5111968;28;20058;-81
2021/08/26 08:48:55;;;;;;;12.80;8.70;;;538.50;2176.00;;;;;;5108775;28;20035;-81
2021/08/26 08:51:23;;;;;;;14.20;8.85;;;538.50;2227.20;;;;;;5111764;28;20027;-80
2021/08/26 08:53:49;;;;;;;18.83;9.77;;;563.20;2252.80;;;;;;5109269;28;20476;-80
2021/08/26 08:56:17;;;;;;;12.98;9.10;;;563.40;2227.20;;;;;;5095395;28;20047;-79
2021/08/26 08:58:43;;;;;;;13.20;8.45;;;563.50;2227.20;;;;;;5093585;28;20017;-83
2021/08/26 09:01:13;;;;;;;12.90;8.35;;;563.20;2201.60;;;;;;5075277;28;20393;-80
2021/08/26 09:03:38;;;;;;;16.02;8.25;;;563.30;2176.00;;;;;;5093971;28;20020;-81
2021/08/26 09:06:08;;;;;;;15.02;8.38;;;563.30;2201.60;;;;;;5093953;28;20040;-81
2021/08/26 09:08:35;;;;;;;12.88;8.25;;;563.40;2176.00;;;;;;5093987;28;20028;-80
2021/08/26 09:11:27;;;;;;;12.73;8.65;;;563.40;2176.00;;;;;;5093491;28;20112;-80
2021/08/26 09:13:53;;;;;;;15.65;8.35;;;563.50;2150.40;;;;;;5089771;28;20123;-82
2021/08/26 09:16:41;;;;;;;13.90;8.77;;;563.70;2227.20;;;;;;5105944;28;20095;-77
2021/08/26 09:19:30;;;;;;;12.98;7.90;;;563.80;2227.20;;;;;;5102562;28;20027;-84
2021/08/26 09:22:02;;;;;;;13.32;7.75;;;563.90;2099.20;;;;;;5105746;28;20035;-83
2021/08/26 09:24:49;;;;;;;16.42;5.97;;;564.10;2099.20;;;;;;5093914;28;20027;-83
2021/08/26 09:27:34;;;;;;;9.93;6.80;;;564.10;2048.00;;;;;;5100384;28;20026;-79
2021/08/26 09:30:05;;;;;;;11.60;5.70;;;588.80;2048.00;;;;;;5075066;28;20076;-83
2021/08/26 09:32:57;;;;;;;9.85;5.00;;;564.10;2022.40;;;;;;5095297;28;20016;-83
2021/08/26 09:35:26;;;;;;;14.13;6.68;;;564.10;1996.80;;;;;;5092242;28;20430;-82
2021/08/26 09:37:54;;;;;;;8.73;5.97;;;564.10;2073.60;;;;;;5094866;28;20032;-83
2021/08/26 09:40:30;;;;;;;12.00;6.03;;;588.90;2022.40;;;;;;5093496;28;20093;-82
2021/08/26 09:43:01;;;;;;;25.30;7.15;;;589.00;2073.60;;;;;;5098803;28;20096;-84
2021/08/26 09:45:29;;;;;;;11.15;6.63;;;588.90;2073.60;;;;;;5105942;28;20028;-92
2021/08/26 09:48:08;;;;;;;16.60;8.02;;;589.10;1996.80;;;;;;5100182;28;20107;-89
2021/08/26 09:50:47;;;;;;;13.98;7.75;;;589.10;2048.00;;;;;;5075631;28;20028;-89
2021/08/26 09:53:18;;;;;;;13.52;7.82;;;589.40;1996.80;;;;;;5092209;28;20046;-90
2021/08/26 09:56:06;;;;;;;11.27;7.00;;;589.40;1996.80;;;;;;5093810;28;20121;-88
2021/08/26 09:58:36;;;;;;;9.50;7.50;;;589.60;1996.80;;;;;;5108461;28;20035;-88
2021/08/26 10:01:18;;;;;;;14.77;7.45;;;589.70;1945.60;;;;;;5094016;28;20025;-92
2021/08/26 10:03:44;;;;;;;12.38;6.68;;;589.70;1971.20;;;;;;5094729;28;20024;-85
2021/08/26 10:06:15;;;;;;;11.40;6.22;;;589.70;1996.80;;;;;;5103871;28;20016;-82
2021/08/26 10:08:43;;;;;;;11.32;6.68;;;589.70;2022.40;;;;;;5117213;28;20011;-75
2021/08/26 10:11:10;;;;;;;12.00;6.90;;;614.40;1920.00;;;;;;5108676;28;20393;-75
2021/08/26 10:13:37;;;;;;;10.27;5.90;;;589.70;1945.60;;;;;;5097738;28;20095;-85
2021/08/26 10:16:03;;;;;;;10.38;5.82;;;589.70;1971.20;;;;;;5098053;28;20020;-85
2021/08/26 10:18:29;;;;;;;9.80;6.00;;;589.70;1894.40;;;;;;5098075;28;20104;-84
2021/08/26 10:20:56;;;;;;;10.20;6.25;;;589.60;1920.00;;;;;;5097333;28;20052;-85
2021/08/26 10:23:23;;;;;;;8.30;5.65;;;589.70;1894.40;;;;;;5097241;28;20066;-83
2021/08/26 10:25:50;;;;;;;8.98;5.90;;;589.60;1945.60;;;;;;5097280;28;20016;-83
2021/08/26 10:28:17;;;;;;;8.05;5.53;;;589.70;1920.00;;;;;;5096968;28;20039;-82
2021/08/26 10:30:43;;;;;;;7.88;6.00;;;589.70;1894.40;;;;;;5097198;28;20028;-83
2021/08/26 10:33:23;;;;;;;8.63;5.30;;;614.70;1843.20;;;;;;5079182;28;20501;-81
2021/08/26 10:35:52;;;;;;;12.63;7.22;;;614.70;1843.20;;;;;;5117268;28;20496;-76
2021/08/26 10:38:20;;;;;;;9.43;6.20;;;614.70;1945.60;;;;;;5119402;28;20516;-77
2021/08/26 10:40:57;;;;;;;11.60;6.63;;;614.60;1894.40;;;;;;5117812;28;20438;-81
2021/08/26 10:43:37;;;;;;;9.57;6.18;;;614.50;1868.80;;;;;;5118536;28;20022;-81
2021/08/26 10:46:20;;;;;;;8.57;6.05;;;614.70;1843.20;;;;;;5118442;28;20066;-81
2021/08/26 10:49:00;;;;;;;9.32;5.45;;;614.60;1868.80;;;;;;5100153;28;20060;-82
2021/08/26 10:51:41;;;;;;;10.57;5.43;;;614.80;1843.20;;;;;;5098592;28;20033;-84
2021/08/26 10:54:33;;;;;;;9.52;5.68;;;615.00;1817.60;;;;;;5115566;28;20435;-82
2021/08/26 10:57:29;;;;;;;23.40;11.48;;;615.10;1817.60;;;;;;5107605;28;20043;-79
2021/08/26 10:59:55;;;;;;;9.95;6.32;;;615.20;1843.20;;;;;;5093332;28;20035;-82
2021/08/26 11:02:44;;;;;;;11.90;6.32;;;640.10;1740.80;;;;;;5096517;28;20135;-81
2021/08/26 11:05:33;;;;;;;24.10;11.85;;;640.40;1766.40;;;;;;5013774;28;20639;-80
2021/08/26 11:07:59;;;;;;;14.23;6.47;;;640.50;1868.80;;;;;;5013566;28;21054;-79
2021/08/26 11:10:28;;;;;;;11.02;6.35;;;640.80;1715.20;;;;;;5013715;28;20128;-80
2021/08/26 11:13:33;;;;;;;11.98;5.93;;;640.70;1715.20;;;;;;5017092;28;20029;-80
2021/08/26 11:16:33;;;;;;;16.08;6.40;;;640.60;1740.80;;;;;;5013726;28;20030;-81
2021/08/26 11:19:05;;;;;;;9.25;5.47;;;640.40;1766.40;;;;;;4971616;28;20062;-81
2021/08/26 11:24:23;;;;;;;11.02;5.53;;;640.10;1766.40;;;;;;4971877;28;20484;-80
2021/08/26 11:26:55;;;;;;;7.43;5.25;;;640.00;1817.60;;;;;;4966043;28;20019;-81
2021/08/26 11:29:21;;;;;;;10.00;5.90;;;640.00;1792.00;;;;;;4965724;28;20035;-82
2021/08/26 11:31:58;;;;;;;9.02;5.13;;;640.30;1792.00;;;;;;4968957;28;20127;-80
2021/08/26 11:34:26;;;;;;;9.15;5.03;;;640.50;1766.40;;;;;;4971357;28;20046;-83
2021/08/26 11:37:15;;;;;;;7.45;4.97;;;640.90;1689.60;;;;;;4965336;28;20047;-78
2021/08/26 11:40:00;;;;;;;10.05;4.82;;;640.70;1715.20;;;;;;4962250;28;20608;-79
2021/08/26 11:42:33;;;;;;;10.83;5.37;;;640.40;1715.20;;;;;;5005566;28;20112;-80
2021/08/26 11:45:22;;;;;;;10.35;4.93;;;640.10;1766.40;;;;;;5026928;28;20026;-79
2021/08/26 11:47:55;;;;;;;7.88;5.40;;;640.10;1740.80;;;;;;4996439;28;20042;-78
2021/08/26 11:50:34;;;;;;;9.40;4.88;;;640.20;1740.80;;;;;;4993544;28;20042;-80
2021/08/26 11:53:02;;;;;;;9.55;5.13;;;640.60;1792.00;;;;;;4993739;28;20041;-83
2021/08/26 11:55:35;;;;;;;8.98;5.63;;;640.70;1715.20;;;;;;5040651;28;20068;-76
2021/08/26 11:58:04;;;;;;;9.75;6.00;;;665.70;1715.20;;;;;;5043338;28;20094;-77
2021/08/26 12:00:30;;;;;;;7.53;4.70;;;665.70;1689.60;;;;;;5036000;28;20025;-80
2021/08/26 12:02:58;;;;;;;9.27;5.07;;;665.70;1664.00;;;;;;5052949;28;20032;-76
2021/08/26 12:05:25;;;;;;;11.57;5.55;;;640.70;1689.60;;;;;;5052914;28;20076;-80
2021/08/26 12:07:52;;;;;;;9.52;5.13;;;640.60;1715.20;;;;;;5052630;28;20504;-80
2021/08/26 12:10:30;;;;;;;9.82;5.75;;;640.60;1715.20;;;;;;5052837;28;20044;-79
2021/08/26 12:13:04;;;;;;;12.52;5.90;;;640.60;1715.20;;;;;;5052978;28;20112;-77
2021/08/26 12:15:50;;;;;;;7.43;5.28;;;640.30;1766.40;;;;;;5052963;28;20596;-80
2021/08/26 12:18:18;;;;;;;8.70;4.38;;;640.20;1740.80;;;;;;5052206;28;20110;-77
2021/08/26 12:20:44;;;;;;;7.68;4.45;;;640.00;1766.40;;;;;;5052306;28;20025;-78